Time;durP1;ratioP1;P1;durP2;ratioP2;P2;SDS_P1;SDS_P2;PMS_P1;PMS_P2;Temp;Humidity;BMP_temperature;BMP_pressure;BME280_temperature;BME280_humidity;BME280_pressure;Samples;Min_cycle;Max_cycle;Signal;HPM_P1;HPM_P2
2023/04/30 00:01:25;;;;;;;0.80;0.80;;;;;;;2.56;80.56;99585.97;6123482;23;20092;-84
2023/04/30 00:03:53;;;;;;;0.80;0.80;;;;;;;2.59;80.81;99590.13;6098240;23;20057;-84
2023/04/30 00:06:20;;;;;;;0.80;0.80;;;;;;;2.56;80.82;99585.97;6097572;23;20113;-83
2023/04/30 00:08:47;;;;;;;0.80;0.80;;;;;;;2.55;81.06;99586.97;6098364;23;20049;-83
2023/04/30 00:11:14;;;;;;;0.82;0.82;;;;;;;2.50;81.06;99589.34;6123094;23;20330;-84
2023/04/30 00:13:44;;;;;;;0.80;0.80;;;;;;;2.44;81.64;99594.56;6097556;23;20056;-83
2023/04/30 00:16:11;;;;;;;0.80;0.80;;;;;;;2.37;81.88;99589.13;6123722;23;20022;-83
2023/04/30 00:18:38;;;;;;;0.80;0.80;;;;;;;2.36;82.08;99593.63;6123812;23;20024;-84
2023/04/30 00:21:05;;;;;;;0.80;0.80;;;;;;;2.36;82.28;99595.47;6123419;23;20049;-84
2023/04/30 00:23:32;;;;;;;0.80;0.80;;;;;;;2.38;82.52;99598.75;6123715;23;20029;-84
2023/04/30 00:26:01;;;;;;;0.80;0.80;;;;;;;2.37;82.27;99603.25;6123341;23;20029;-84
2023/04/30 00:28:28;;;;;;;0.80;0.80;;;;;;;2.24;82.87;99599.53;6097461;23;20105;-84
2023/04/30 00:30:55;;;;;;;0.90;0.90;;;;;;;2.31;82.55;99601.31;6123272;23;20108;-84
2023/04/30 00:33:26;;;;;;;0.80;0.80;;;;;;;2.35;82.45;99607.94;6123683;23;20026;-84
2023/04/30 00:35:55;;;;;;;0.80;0.80;;;;;;;2.35;82.65;99607.09;6097249;23;20052;-84
2023/04/30 00:38:22;;;;;;;0.80;0.80;;;;;;;2.27;82.77;99608.00;6123332;23;20104;-83
2023/04/30 00:40:49;;;;;;;0.70;0.70;;;;;;;2.26;82.84;99605.50;6097470;23;20080;-84
2023/04/30 00:43:16;;;;;;;0.80;0.80;;;;;;;2.21;82.89;99613.19;6123290;23;20476;-84
2023/04/30 00:45:43;;;;;;;0.80;0.80;;;;;;;2.14;83.07;99605.91;6123831;23;20472;-84
2023/04/30 00:48:10;;;;;;;0.80;0.80;;;;;;;2.10;83.34;99601.09;6123418;23;20106;-84
2023/04/30 00:50:38;;;;;;;0.80;0.80;;;;;;;2.01;83.83;99595.00;6121788;23;20022;-82
2023/04/30 00:53:05;;;;;;;0.90;0.90;;;;;;;2.02;83.71;99599.31;6097292;23;20026;-83
2023/04/30 00:55:32;;;;;;;0.82;0.82;;;;;;;1.99;83.89;99612.16;6092868;23;20026;-83
2023/04/30 00:58:00;;;;;;;0.80;0.80;;;;;;;2.05;84.07;99614.09;6093071;23;20023;-84
2023/04/30 01:00:26;;;;;;;0.80;0.80;;;;;;;2.02;84.21;99607.28;6094146;23;20085;-84
2023/04/30 01:02:55;;;;;;;0.90;0.90;;;;;;;1.99;84.40;99604.16;6092627;23;20105;-84
2023/04/30 01:05:23;;;;;;;0.80;0.80;;;;;;;1.97;84.19;99609.66;6093967;23;20049;-84
2023/04/30 01:07:51;;;;;;;0.80;0.80;;;;;;;1.86;84.57;99600.22;6092283;23;20406;-84
2023/04/30 01:10:18;;;;;;;0.80;0.80;;;;;;;1.83;85.00;99610.41;6092364;23;20109;-83
2023/04/30 01:12:55;;;;;;;0.70;0.70;;;;;;;1.80;85.26;99613.38;6045212;23;20109;-84
2023/04/30 01:15:37;;;;;;;0.88;0.88;;;;;;;1.82;85.19;99614.88;6092705;23;20365;-84
2023/04/30 01:18:12;;;;;;;0.80;0.80;;;;;;;1.78;85.40;99618.91;6092413;23;20109;-83
2023/04/30 01:20:49;;;;;;;0.88;0.88;;;;;;;1.76;85.88;99601.44;6092650;23;20022;-84
2023/04/30 01:23:23;;;;;;;;;;;;;;;1.77;85.17;99611.06;6092638;23;20469;-84
2023/04/30 01:25:56;;;;;;;0.77;0.77;;;;;;;1.69;85.38;99618.09;6092888;23;19977;-84
2023/04/30 01:28:27;;;;;;;0.80;0.80;;;;;;;1.61;85.58;99622.63;6092324;23;20023;-83
2023/04/30 01:30:55;;;;;;;0.88;0.88;;;;;;;1.57;85.85;99622.16;6069672;23;20050;-84
2023/04/30 01:33:23;;;;;;;0.90;0.90;;;;;;;1.56;86.13;99615.16;6092651;23;20027;-84
2023/04/30 01:35:53;;;;;;;0.70;0.70;;;;;;;1.53;86.45;99615.50;6093998;23;20050;-83
2023/04/30 01:38:44;;;;;;;0.80;0.80;;;;;;;1.53;86.65;99620.81;6068232;23;20449;-83
2023/04/30 01:41:43;;;;;;;0.90;0.90;;;;;;;1.58;86.81;99623.78;6068131;23;20425;-84
2023/04/30 01:44:14;;;;;;;0.90;0.90;;;;;;;1.49;86.58;99620.34;6092101;23;20034;-84
2023/04/30 01:46:45;;;;;;;0.80;0.80;;;;;;;1.40;86.93;99615.22;6092954;23;20072;-84
2023/04/30 01:49:19;;;;;;;0.80;0.80;;;;;;;1.42;87.35;99615.84;6068599;23;20216;-84
2023/04/30 01:51:48;;;;;;;0.80;0.80;;;;;;;1.41;87.59;99616.84;6092612;23;20457;-83
2023/04/30 01:54:32;;;;;;;0.80;0.80;;;;;;;1.41;87.71;99633.63;6105630;23;20058;-83
2023/04/30 01:57:05;;;;;;;0.90;0.90;;;;;;;1.52;87.89;99617.34;6097160;23;20022;-83
2023/04/30 01:59:37;;;;;;;0.80;0.80;;;;;;;1.50;87.46;99610.53;6097243;23;20029;-82
2023/04/30 02:02:05;;;;;;;0.80;0.80;;;;;;;1.48;87.45;99601.88;6072802;23;20026;-84
2023/04/30 02:04:33;;;;;;;0.85;0.85;;;;;;;1.48;87.80;99609.84;6123362;23;20022;-83
2023/04/30 02:07:02;;;;;;;0.80;0.80;;;;;;;1.47;88.02;99602.88;6121174;23;20520;-84
2023/04/30 02:09:30;;;;;;;0.88;0.88;;;;;;;1.49;88.18;99591.06;6097080;23;20369;-82
2023/04/30 02:11:59;;;;;;;0.80;0.80;;;;;;;1.54;88.19;99595.84;6122448;23;20033;-84
2023/04/30 02:14:29;;;;;;;0.75;0.75;;;;;;;1.58;88.06;99591.88;6097214;23;20026;-84
2023/04/30 02:16:57;;;;;;;0.80;0.80;;;;;;;1.61;87.77;99594.19;6123174;23;20424;-84
2023/04/30 02:19:25;;;;;;;0.90;0.90;;;;;;;1.63;87.99;99586.03;6099060;23;20061;-84
2023/04/30 02:21:55;;;;;;;0.90;0.90;;;;;;;1.65;88.01;99589.34;6075806;23;20022;-83
2023/04/30 02:24:24;;;;;;;0.90;0.90;;;;;;;1.59;88.01;99576.72;6125228;23;20365;-83
2023/04/30 02:26:51;;;;;;;0.88;0.88;;;;;;;1.60;88.12;99581.06;6125074;23;20057;-83
2023/04/30 02:29:18;;;;;;;0.80;0.80;;;;;;;1.62;88.23;99571.91;6098864;23;20021;-83
2023/04/30 02:31:45;;;;;;;0.80;0.80;;;;;;;1.66;87.94;99573.19;6109975;23;20054;-84
2023/04/30 02:34:14;;;;;;;0.90;0.90;;;;;;;1.74;88.08;99573.16;6112031;23;20096;-83
2023/04/30 02:36:41;;;;;;;0.85;0.85;;;;;;;1.82;88.05;99574.13;6110130;23;20081;-83
2023/04/30 02:39:18;;;;;;;0.80;0.80;;;;;;;1.85;88.00;99565.78;6132670;23;20017;-83
2023/04/30 02:41:45;;;;;;;0.90;0.90;;;;;;;1.87;88.08;99556.63;6127031;23;20474;-83
2023/04/30 02:44:12;;;;;;;0.90;0.90;;;;;;;1.98;87.68;99550.09;6126161;23;20124;-84
2023/04/30 02:46:40;;;;;;;0.80;0.80;;;;;;;2.13;87.38;99548.34;6076708;23;20022;-85
2023/04/30 02:49:07;;;;;;;0.80;0.80;;;;;;;2.17;87.15;99548.78;6100162;23;20029;-85
2023/04/30 02:51:34;;;;;;;0.90;0.90;;;;;;;2.25;87.01;99547.91;6123997;23;20022;-84
2023/04/30 02:54:03;;;;;;;0.70;0.70;;;;;;;2.34;86.57;99554.84;6093839;23;20090;-84
2023/04/30 02:56:30;;;;;;;0.90;0.90;;;;;;;2.42;86.51;99557.44;6094223;23;20027;-84
2023/04/30 02:59:00;;;;;;;0.80;0.80;;;;;;;2.46;86.30;99550.75;6094784;23;20028;-83
2023/04/30 03:01:29;;;;;;;0.70;0.70;;;;;;;2.70;86.00;99562.22;6071073;23;20030;-83
2023/04/30 03:03:57;;;;;;;0.80;0.80;;;;;;;2.84;85.31;99561.44;6093512;23;20022;-83
2023/04/30 03:06:24;;;;;;;0.80;0.80;;;;;;;2.90;84.92;99551.88;6093683;23;20026;-82
2023/04/30 03:08:51;;;;;;;0.80;0.80;;;;;;;3.02;84.50;99559.25;6093943;23;20022;-82
2023/04/30 03:11:24;;;;;;;0.80;0.80;;;;;;;3.07;84.31;99549.88;6093326;23;20390;-84
2023/04/30 03:13:51;;;;;;;0.85;0.85;;;;;;;3.13;83.88;99551.81;6069953;23;20053;-84
2023/04/30 03:16:21;;;;;;;0.80;0.80;;;;;;;3.26;84.12;99557.31;6093033;23;20022;-83
2023/04/30 03:18:48;;;;;;;0.80;0.80;;;;;;;3.40;83.35;99561.03;6094024;23;20026;-84
2023/04/30 03:21:15;;;;;;;0.85;0.85;;;;;;;3.54;83.02;99557.50;6093315;23;20114;-84
2023/04/30 03:23:42;;;;;;;0.80;0.80;;;;;;;3.68;82.34;99551.31;6093466;23;20031;-84
2023/04/30 03:26:10;;;;;;;0.73;0.73;;;;;;;3.83;81.91;99548.63;6069514;23;20113;-83
2023/04/30 03:28:37;;;;;;;0.80;0.80;;;;;;;3.97;81.33;99546.09;6093581;23;20095;-83
2023/04/30 03:31:06;;;;;;;0.70;0.70;;;;;;;4.10;80.87;99551.59;6094609;23;20030;-83
2023/04/30 03:33:34;;;;;;;0.70;0.70;;;;;;;4.24;80.30;99542.69;6094644;23;20022;-83
2023/04/30 03:36:02;;;;;;;0.80;0.80;;;;;;;4.39;79.74;99544.50;6094538;23;20027;-83
2023/04/30 03:38:30;;;;;;;0.80;0.80;;;;;;;4.55;78.96;99533.53;6092729;23;20029;-82
2023/04/30 03:40:59;;;;;;;0.88;0.88;;;;;;;4.71;78.52;99541.28;6045156;23;20142;-83
2023/04/30 03:43:28;;;;;;;0.80;0.80;;;;;;;4.89;77.37;99534.63;6094965;23;20052;-83
2023/04/30 03:45:56;;;;;;;0.80;0.80;;;;;;;5.07;76.84;99531.47;6069068;23;20023;-83
2023/04/30 03:48:26;;;;;;;0.80;0.80;;;;;;;5.26;75.88;99538.78;6093664;23;20022;-84
2023/04/30 03:50:53;;;;;;;0.80;0.80;;;;;;;5.44;75.32;99530.22;6094732;23;20053;-83
2023/04/30 03:53:20;;;;;;;0.75;0.75;;;;;;;5.58;74.35;99518.56;6095105;23;20033;-83
2023/04/30 03:55:48;;;;;;;0.70;0.70;;;;;;;5.76;73.65;99525.22;6097870;23;20026;-83
2023/04/30 03:58:18;;;;;;;0.80;0.80;;;;;;;5.87;72.87;99527.31;6073918;23;20026;-83
2023/04/30 04:00:48;;;;;;;0.70;0.70;;;;;;;5.99;72.36;99520.38;6097635;23;20796;-83
2023/04/30 04:03:21;;;;;;;0.70;0.70;;;;;;;6.13;71.91;99515.03;6097541;23;20025;-83
2023/04/30 04:06:02;;;;;;;0.73;0.73;;;;;;;6.16;71.56;99511.97;6123525;23;20078;-84
2023/04/30 04:08:30;;;;;;;0.70;0.70;;;;;;;6.16;71.48;99517.34;6123336;23;20018;-84
2023/04/30 04:10:57;;;;;;;0.60;0.60;;;;;;;6.15;71.20;99518.34;6097022;23;20022;-84
2023/04/30 04:13:25;;;;;;;0.70;0.70;;;;;;;6.17;71.30;99516.28;6123189;23;20026;-86
2023/04/30 04:15:52;;;;;;;0.60;0.60;;;;;;;6.13;71.27;99510.53;6050250;23;20029;-84
2023/04/30 04:18:20;;;;;;;0.70;0.70;;;;;;;6.11;71.25;99517.94;6097607;23;20022;-84
2023/04/30 04:20:50;;;;;;;0.60;0.60;;;;;;;6.05;71.24;99514.22;6123676;23;20025;-84
2023/04/30 04:23:19;;;;;;;0.80;0.80;;;;;;;6.02;71.14;99493.16;6073574;23;20030;-84
2023/04/30 04:25:48;;;;;;;0.70;0.70;;;;;;;6.05;70.77;99498.16;6097969;23;20045;-84
2023/04/30 04:28:20;;;;;;;0.70;0.70;;;;;;;6.19;70.73;99506.19;6097645;23;20084;-84
2023/04/30 04:30:48;;;;;;;0.80;0.80;;;;;;;6.33;70.54;99504.34;6097491;23;20029;-84
2023/04/30 04:33:16;;;;;;;0.70;0.70;;;;;;;6.42;70.38;99509.31;6097865;23;20125;-84
2023/04/30 04:35:43;;;;;;;0.75;0.75;;;;;;;6.51;69.94;99512.63;6097628;23;20054;-84
2023/04/30 04:38:13;;;;;;;0.80;0.80;;;;;;;6.62;69.34;99511.19;6096487;23;20105;-84
2023/04/30 04:40:40;;;;;;;0.75;0.75;;;;;;;6.70;69.15;99495.69;6123249;23;20354;-85
2023/04/30 04:43:07;;;;;;;0.70;0.70;;;;;;;6.86;68.68;99510.56;6097014;23;20057;-83
2023/04/30 04:45:35;;;;;;;0.70;0.70;;;;;;;6.97;68.48;99510.97;6121911;23;20112;-84
2023/04/30 04:48:02;;;;;;;0.70;0.70;;;;;;;7.09;68.22;99509.28;6122902;23;20022;-84
2023/04/30 04:50:30;;;;;;;0.70;0.70;;;;;;;7.20;67.95;99505.97;6123200;23;20026;-84
2023/04/30 04:52:57;;;;;;;0.70;0.70;;;;;;;7.18;67.64;99502.66;6097374;23;20041;-82
2023/04/30 04:55:24;;;;;;;0.80;0.80;;;;;;;7.23;67.64;99507.41;6066281;23;20050;-82
2023/04/30 04:57:54;;;;;;;0.80;0.80;;;;;;;7.27;67.23;99505.94;6092138;23;20036;-83
2023/04/30 05:00:24;;;;;;;0.70;0.70;;;;;;;7.32;66.89;99495.41;6093602;23;20054;-84
2023/04/30 05:03:19;;;;;;;0.70;0.70;;;;;;;7.43;66.36;99504.66;6067955;23;20029;-83
2023/04/30 05:05:48;;;;;;;0.70;0.70;;;;;;;7.36;66.09;99481.31;6045202;23;20081;-83
2023/04/30 05:08:16;;;;;;;0.70;0.70;;;;;;;7.49;65.96;99485.81;6091734;23;20022;-85
2023/04/30 05:10:43;;;;;;;0.70;0.70;;;;;;;7.65;65.84;99495.28;6093719;23;20081;-83
2023/04/30 05:13:10;;;;;;;0.70;0.70;;;;;;;7.60;65.70;99476.28;6091755;23;20030;-85
2023/04/30 05:15:37;;;;;;;0.70;0.70;;;;;;;7.75;65.21;99486.75;6116909;23;20026;-85
2023/04/30 05:18:07;;;;;;;0.70;0.70;;;;;;;7.81;64.78;99491.28;6092842;23;20078;-84
2023/04/30 05:20:35;;;;;;;0.70;0.70;;;;;;;7.87;64.37;99485.03;6092216;23;20604;-85
2023/04/30 05:23:05;;;;;;;0.70;0.70;;;;;;;8.02;63.46;99482.88;6093599;23;20026;-84
2023/04/30 05:25:37;;;;;;;0.70;0.70;;;;;;;8.13;62.78;99483.25;6094289;23;20041;-86
2023/04/30 05:28:09;;;;;;;0.70;0.70;;;;;;;8.12;62.05;99477.00;6098222;23;20023;-84
2023/04/30 05:30:40;;;;;;;0.70;0.70;;;;;;;8.07;62.14;99467.97;6069320;23;20366;-85
2023/04/30 05:33:07;;;;;;;0.70;0.70;;;;;;;8.16;61.93;99480.94;6092647;23;20341;-85
2023/04/30 05:35:35;;;;;;;0.68;0.68;;;;;;;8.21;61.60;99494.53;6094624;23;20049;-85
2023/04/30 05:38:02;;;;;;;0.60;0.60;;;;;;;8.18;61.37;99478.84;6094096;23;20019;-84
2023/04/30 05:40:30;;;;;;;0.60;0.60;;;;;;;8.34;60.77;99477.50;6068466;23;20027;-85
2023/04/30 05:42:57;;;;;;;0.70;0.70;;;;;;;8.33;60.45;99457.03;6065611;23;20045;-85
2023/04/30 05:45:25;;;;;;;0.70;0.70;;;;;;;8.45;60.31;99465.22;6091167;23;20027;-84
2023/04/30 05:47:52;;;;;;;0.70;0.70;;;;;;;8.64;59.93;99466.94;6089611;23;20101;-84
2023/04/30 05:50:20;;;;;;;0.70;0.70;;;;;;;8.63;59.05;99478.75;6090837;23;20022;-86
2023/04/30 05:52:51;;;;;;;0.70;0.70;;;;;;;8.72;58.51;99473.09;6068943;23;20398;-84
2023/04/30 05:55:21;;;;;;;0.60;0.60;;;;;;;8.91;57.95;99490.91;6117392;23;20053;-83
2023/04/30 05:57:51;;;;;;;0.75;0.75;;;;;;;8.96;58.00;99491.06;6114620;23;20057;-85
2023/04/30 06:00:18;;;;;;;0.70;0.70;;;;;;;9.06;57.90;99498.63;6093175;23;20420;-83
2023/04/30 06:02:49;;;;;;;0.70;0.70;;;;;;;9.14;57.57;99489.44;6119732;23;20077;-86
2023/04/30 06:05:21;;;;;;;0.70;0.70;;;;;;;9.15;56.71;99491.91;6069285;23;20034;-86
2023/04/30 06:07:51;;;;;;;0.70;0.70;;;;;;;9.18;56.44;99494.16;6022285;23;20029;-82
2023/04/30 06:10:18;;;;;;;0.65;0.65;;;;;;;9.34;56.45;99476.56;6093793;23;20033;-82
2023/04/30 06:12:48;;;;;;;0.60;0.60;;;;;;;9.63;55.83;99510.03;6119822;23;20093;-84
2023/04/30 06:15:15;;;;;;;0.70;0.70;;;;;;;9.73;55.25;99506.81;6093868;23;20021;-85
2023/04/30 06:17:45;;;;;;;0.68;0.68;;;;;;;9.67;55.34;99486.13;6093301;23;20026;-83
2023/04/30 06:20:13;;;;;;;0.70;0.70;;;;;;;9.89;55.05;99511.56;6117208;23;20032;-87
2023/04/30 06:22:49;;;;;;;0.70;0.70;;;;;;;9.85;54.45;99491.50;6094494;23;20022;-88
2023/04/30 06:25:16;;;;;;;0.70;0.70;;;;;;;10.04;53.81;99494.97;6094036;23;20366;-87
2023/04/30 06:28:08;;;;;;;0.70;0.70;;;;;;;10.17;53.67;99496.66;6095170;23;20404;-84
2023/04/30 06:31:24;;;;;;;0.70;0.70;;;;;;;10.28;53.59;99490.53;6153766;23;20103;-89
2023/04/30 06:33:52;;;;;;;;;;;;;;;10.33;53.13;99497.91;6154246;23;20024;-86
2023/04/30 06:36:52;;;;;;;0.60;0.60;;;;;;;10.13;52.71;99474.72;6175322;23;19940;-83
2023/04/30 06:39:21;;;;;;;0.60;0.60;;;;;;;10.30;52.62;99482.19;6128282;23;20042;-84
2023/04/30 06:41:48;;;;;;;0.60;0.60;;;;;;;10.49;51.67;99488.34;6154947;23;20032;-84
2023/04/30 06:44:15;;;;;;;0.60;0.60;;;;;;;10.60;50.59;99495.63;6153715;23;20049;-84
2023/04/30 06:46:46;;;;;;;0.60;0.60;;;;;;;10.72;50.21;99482.97;6130685;23;20107;-84
2023/04/30 06:49:16;;;;;;;0.60;0.60;;;;;;;10.65;49.68;99468.75;6173103;23;20387;-85
2023/04/30 06:51:44;;;;;;;0.60;0.60;;;;;;;10.82;49.12;99482.38;6175072;23;20025;-83
2023/04/30 06:54:11;;;;;;;0.60;0.60;;;;;;;10.85;49.01;99471.91;6152504;23;20017;-82
2023/04/30 06:56:38;;;;;;;0.60;0.60;;;;;;;10.82;49.39;99464.28;6127534;23;20380;-82
2023/04/30 06:59:12;;;;;;;0.60;0.60;;;;;;;10.93;48.58;99465.34;6152044;23;20060;-83
2023/04/30 07:01:41;;;;;;;0.60;0.60;;;;;;;10.93;48.93;99449.13;6177613;23;20024;-83
2023/04/30 07:04:08;;;;;;;0.60;0.60;;;;;;;11.02;47.36;99441.53;6182575;23;20032;-87
2023/04/30 07:06:35;;;;;;;0.70;0.70;;;;;;;11.12;47.58;99444.44;6181951;23;20079;-83
2023/04/30 07:09:18;;;;;;;0.60;0.60;;;;;;;11.23;46.46;99427.38;6154879;23;20025;-81
2023/04/30 07:12:06;;;;;;;0.70;0.70;;;;;;;11.38;46.26;99443.09;6181378;23;20017;-83
2023/04/30 07:14:34;;;;;;;0.60;0.60;;;;;;;11.39;45.17;99433.09;6182791;23;20132;-82
2023/04/30 07:17:01;;;;;;;0.60;0.60;;;;;;;11.34;44.19;99436.50;6182550;23;20028;-83
2023/04/30 07:19:28;;;;;;;0.60;0.60;;;;;;;11.29;44.22;99441.81;6182041;23;20083;-85
2023/04/30 07:22:14;;;;;;;0.60;0.60;;;;;;;11.21;44.24;99436.78;6155617;23;20517;-84
2023/04/30 07:25:08;;;;;;;0.55;0.55;;;;;;;11.37;44.43;99427.94;6100754;23;20068;-84
2023/04/30 07:27:35;;;;;;;0.60;0.60;;;;;;;11.28;44.74;99408.56;6095760;23;20058;-82
2023/04/30 07:30:07;;;;;;;0.70;0.70;;;;;;;11.48;44.80;99410.84;6094088;23;20026;-83
2023/04/30 07:33:04;;;;;;;0.60;0.60;;;;;;;11.56;44.79;99409.66;6091004;23;20049;-84
2023/04/30 07:35:57;;;;;;;0.60;0.60;;;;;;;11.84;44.44;99411.53;6093975;23;20030;-83
2023/04/30 07:38:25;;;;;;;0.60;0.60;;;;;;;11.79;44.39;99403.31;6093002;23;20030;-82
2023/04/30 07:40:58;;;;;;;0.60;0.60;;;;;;;11.74;43.99;99369.97;6090418;23;20503;-83
2023/04/30 07:43:28;;;;;;;0.60;0.60;;;;;;;11.78;44.33;99371.94;6043497;23;20030;-84
2023/04/30 07:46:06;;;;;;;0.60;0.60;;;;;;;11.52;45.06;99346.34;6093579;23;20057;-85
2023/04/30 07:48:40;;;;;;;0.60;0.60;;;;;;;11.63;44.77;99356.28;6092797;23;20034;-83
2023/04/30 07:51:09;;;;;;;0.60;0.60;;;;;;;11.61;45.16;99358.38;6093740;23;20054;-84
2023/04/30 07:54:35;;;;;;;0.60;0.60;;;;;;;11.43;45.02;99362.09;6067948;23;20474;-85
2023/04/30 07:57:05;;;;;;;0.60;0.60;;;;;;;11.42;45.46;99348.81;6049520;23;20023;-82
2023/04/30 07:59:37;;;;;;;0.60;0.60;;;;;;;11.25;45.77;99324.47;6073573;23;20026;-84
2023/04/30 08:02:32;;;;;;;0.60;0.60;;;;;;;11.37;45.67;99336.06;6120765;23;20053;-84
2023/04/30 08:05:00;;;;;;;0.60;0.60;;;;;;;11.22;45.54;99323.09;6049368;23;20025;-84
2023/04/30 08:07:33;;;;;;;0.60;0.60;;;;;;;11.28;45.68;99327.50;6097513;23;20026;-82
2023/04/30 08:10:05;;;;;;;0.60;0.60;;;;;;;11.02;45.78;99301.06;6119160;23;20096;-84
2023/04/30 08:12:37;;;;;;;0.60;0.60;;;;;;;11.03;46.12;99291.91;6121206;23;20026;-83
2023/04/30 08:15:05;;;;;;;0.60;0.60;;;;;;;11.12;45.70;99292.34;6122728;23;20033;-84
2023/04/30 08:17:33;;;;;;;0.60;0.60;;;;;;;11.20;45.58;99297.38;6096191;23;20022;-81
2023/04/30 08:20:03;;;;;;;0.60;0.60;;;;;;;11.21;44.87;99291.72;6024602;23;20026;-84
2023/04/30 08:22:31;;;;;;;0.60;0.60;;;;;;;11.08;43.83;99289.31;6121284;23;20049;-83
2023/04/30 08:25:00;;;;;;;0.60;0.60;;;;;;;10.89;43.79;99301.34;6122946;23;20029;-83
2023/04/30 08:27:30;;;;;;;0.60;0.60;;;;;;;10.89;44.10;99277.88;6122512;23;20025;-83
2023/04/30 08:30:25;;;;;;;0.60;0.60;;;;;;;11.07;43.55;99277.69;6074308;23;20113;-87
2023/04/30 08:33:00;;;;;;;0.70;0.70;;;;;;;11.05;43.58;99271.69;6096247;23;20021;-84
2023/04/30 08:35:29;;;;;;;0.60;0.60;;;;;;;11.19;43.36;99284.91;6095584;23;20022;-82
2023/04/30 08:37:57;;;;;;;0.60;0.60;;;;;;;11.11;43.56;99269.09;6121404;23;20073;-84
2023/04/30 08:40:26;;;;;;;0.60;0.60;;;;;;;11.05;43.37;99262.78;6121876;23;20470;-83
2023/04/30 08:48:22;;;;;;;0.60;0.60;;;;;;;10.94;43.09;99250.97;6141482;22;20028;-85
2023/04/30 08:50:50;;;;;;;0.60;0.60;;;;;;;10.94;41.98;99244.72;6131130;23;20021;-83
2023/04/30 08:53:45;;;;;;;0.60;0.60;;;;;;;11.07;42.45;99258.78;6181001;23;20025;-82
2023/04/30 08:59:09;;;;;;;0.65;0.65;;;;;;;10.76;42.37;99246.56;6180690;23;20025;-83
2023/04/30 09:02:00;;;;;;;0.60;0.60;;;;;;;10.87;42.55;99249.47;6139708;23;20021;-82
2023/04/30 09:07:14;;;;;;;0.60;0.60;;;;;;;10.79;43.14;99231.78;6181870;23;20028;-83
2023/04/30 09:09:42;;;;;;;0.60;0.60;;;;;;;10.82;43.24;99236.69;6153581;23;20112;-83
2023/04/30 09:12:19;;;;;;;0.60;0.60;;;;;;;10.82;43.45;99221.31;6179499;23;20029;-82
2023/04/30 09:15:04;;;;;;;0.60;0.60;;;;;;;10.87;43.37;99206.28;6130216;23;20025;-84
2023/04/30 09:17:38;;;;;;;0.60;0.60;;;;;;;10.96;43.26;99215.59;6062360;23;20052;-83
2023/04/30 09:23:08;;;;;;;0.60;0.60;;;;;;;11.00;43.75;99203.28;6158201;23;20071;-84
2023/04/30 09:25:41;;;;;;;0.60;0.60;;;;;;;10.94;43.49;99196.97;6180957;23;20035;-82
2023/04/30 09:28:28;;;;;;;0.50;0.50;;;;;;;10.79;43.26;99197.50;6133284;23;20021;-83
2023/04/30 09:34:12;;;;;;;0.60;0.60;;;;;;;10.80;43.38;99185.63;6171063;23;20029;-82
2023/04/30 09:36:56;;;;;;;0.60;0.60;;;;;;;10.75;43.30;99185.53;6130230;23;20021;-82
2023/04/30 09:39:32;;;;;;;0.60;0.60;;;;;;;10.83;42.78;99174.34;6181312;23;20032;-83
2023/04/30 09:42:20;;;;;;;0.50;0.50;;;;;;;11.02;42.83;99179.56;6181076;23;20029;-82
2023/04/30 09:45:06;;;;;;;0.50;0.50;;;;;;;11.02;42.45;99184.94;6156372;23;20025;-83
2023/04/30 09:48:01;;;;;;;0.60;0.60;;;;;;;10.76;42.39;99162.88;6153737;23;20021;-83
2023/04/30 09:50:45;;;;;;;0.50;0.50;;;;;;;10.62;43.37;99150.75;6147133;23;20117;-83
2023/04/30 09:53:16;;;;;;;0.50;0.50;;;;;;;10.79;43.38;99170.50;6150590;23;20021;-83
2023/04/30 09:55:50;;;;;;;0.60;0.60;;;;;;;10.75;43.17;99174.72;6074143;23;20264;-82
2023/04/30 09:58:27;;;;;;;0.60;0.60;;;;;;;10.69;43.04;99161.41;6149191;23;20033;-81
2023/04/30 10:00:57;;;;;;;0.60;0.60;;;;;;;10.67;43.24;99160.81;6150013;23;20044;-80
2023/04/30 10:03:24;;;;;;;0.60;0.60;;;;;;;10.75;43.25;99176.63;6125548;23;20025;-81
2023/04/30 10:05:52;;;;;;;0.60;0.60;;;;;;;10.62;43.31;99166.94;6125228;23;20041;-82
2023/04/30 10:08:58;;;;;;;0.52;0.52;;;;;;;10.73;43.25;99179.53;6125334;23;20028;-82
2023/04/30 10:11:27;;;;;;;0.55;0.55;;;;;;;10.76;43.42;99179.09;6024163;23;20091;-83
2023/04/30 10:13:57;;;;;;;0.50;0.50;;;;;;;10.83;43.19;99166.22;6031630;23;20086;-83
2023/04/30 10:20:19;;;;;;;0.60;0.60;;;;;;;10.68;42.85;99173.25;6028730;23;20507;-82
2023/04/30 10:22:47;;;;;;;0.60;0.60;;;;;;;10.76;42.67;99168.28;6031529;23;20027;-83
2023/04/30 10:25:15;;;;;;;0.60;0.60;;;;;;;10.81;42.64;99168.38;6008888;23;20031;-82
2023/04/30 10:27:43;;;;;;;0.60;0.60;;;;;;;10.80;42.97;99157.81;6008548;23;20019;-80
2023/04/30 10:30:11;;;;;;;0.60;0.60;;;;;;;10.96;42.92;99156.19;6007034;23;20107;-82
2023/04/30 10:36:25;;;;;;;0.60;0.60;;;;;;;11.50;41.79;99175.50;6165025;23;20412;-80
2023/04/30 10:39:57;;;;;;;0.60;0.60;;;;;;;11.53;42.11;99150.66;6212662;23;20508;-83
2023/04/30 10:42:24;;;;;;;0.60;0.60;;;;;;;11.86;41.81;99165.19;6243035;23;20024;-80
2023/04/30 10:44:55;;;;;;;0.60;0.60;;;;;;;11.92;41.60;99164.22;6166076;23;20046;-81
2023/04/30 10:47:28;;;;;;;0.60;0.60;;;;;;;12.01;41.14;99168.16;6191116;23;20031;-82
2023/04/30 10:50:04;;;;;;;0.60;0.60;;;;;;;12.06;40.59;99170.09;6242673;23;20028;-82
2023/04/30 10:52:32;;;;;;;0.60;0.60;;;;;;;11.92;40.66;99161.53;6217144;23;20024;-83
2023/04/30 10:55:04;;;;;;;0.63;0.63;;;;;;;11.82;40.63;99164.06;6245077;23;20070;-82
2023/04/30 10:57:39;;;;;;;0.60;0.60;;;;;;;11.89;41.16;99165.53;6196975;23;20070;-86
2023/04/30 11:00:06;;;;;;;0.60;0.60;;;;;;;12.00;40.46;99161.13;6209246;23;20084;-83
2023/04/30 11:02:46;;;;;;;0.60;0.60;;;;;;;11.94;40.36;99145.88;6194945;23;20020;-85
2023/04/30 11:05:18;;;;;;;0.60;0.60;;;;;;;12.19;39.98;99164.31;6217034;23;20431;-83
2023/04/30 11:16:19;;;;;;;0.60;0.60;;;;;;;12.34;40.05;99139.34;6235627;23;20043;-84
2023/04/30 11:18:46;;;;;;;0.65;0.65;;;;;;;12.31;39.74;99112.78;6216058;23;20020;-83
2023/04/30 11:21:13;;;;;;;0.60;0.60;;;;;;;12.54;39.41;99119.81;6214873;23;20024;-82
2023/04/30 11:23:42;;;;;;;0.70;0.70;;;;;;;12.72;39.01;99102.41;6216366;23;20024;-89
2023/04/30 11:26:12;;;;;;;0.70;0.70;;;;;;;12.99;38.38;99076.09;6190021;23;20073;-86
2023/04/30 11:28:53;;;;;;;0.60;0.60;;;;;;;13.24;37.74;99096.31;6191597;23;20039;-85
2023/04/30 11:31:20;;;;;;;0.60;0.60;;;;;;;13.28;38.07;99077.69;6215639;23;20027;-84
2023/04/30 11:33:51;;;;;;;0.60;0.60;;;;;;;13.30;38.42;99086.38;6216740;23;20020;-86
2023/04/30 11:36:18;;;;;;;0.60;0.60;;;;;;;13.17;38.46;99091.16;6216313;23;20344;-86
2023/04/30 11:39:05;;;;;;;0.60;0.60;;;;;;;12.99;38.91;99092.34;6199761;23;20020;-85
2023/04/30 11:41:40;;;;;;;0.50;0.50;;;;;;;12.98;38.58;99088.00;6191278;23;20031;-84
2023/04/30 11:44:32;;;;;;;0.60;0.60;;;;;;;12.83;38.36;99082.44;6190059;23;20055;-83
2023/04/30 11:47:00;;;;;;;0.60;0.60;;;;;;;12.75;38.83;99080.22;6215188;23;20024;-84
2023/04/30 11:49:28;;;;;;;0.60;0.60;;;;;;;12.62;38.56;99075.22;6189655;23;20093;-84
2023/04/30 11:51:55;;;;;;;0.60;0.60;;;;;;;12.61;39.16;99073.56;6214954;23;20024;-85
2023/04/30 11:54:22;;;;;;;0.60;0.60;;;;;;;12.84;38.93;99062.44;6215744;23;20455;-85
2023/04/30 11:56:50;;;;;;;0.60;0.60;;;;;;;12.90;38.93;99072.22;6242917;23;20051;-84
2023/04/30 11:59:18;;;;;;;0.50;0.50;;;;;;;12.80;39.21;99069.44;6226446;23;20021;-84
2023/04/30 12:01:45;;;;;;;0.50;0.50;;;;;;;12.73;39.28;99071.53;6161757;23;20737;-84
2023/04/30 12:04:12;;;;;;;0.50;0.50;;;;;;;12.51;39.58;99058.88;6212449;23;20031;-83
2023/04/30 12:06:42;;;;;;;0.50;0.50;;;;;;;12.32;39.62;99061.09;6211308;23;20028;-83
2023/04/30 12:09:10;;;;;;;0.60;0.60;;;;;;;12.26;39.76;99056.72;6212080;23;20028;-83
2023/04/30 12:11:38;;;;;;;0.50;0.50;;;;;;;12.11;40.42;99067.38;6211127;23;20024;-83
2023/04/30 12:14:09;;;;;;;0.50;0.50;;;;;;;12.01;40.42;99065.38;6211535;23;20030;-82
2023/04/30 12:16:49;;;;;;;0.50;0.50;;;;;;;11.77;40.88;99059.34;6185464;23;20483;-83
2023/04/30 12:19:21;;;;;;;0.60;0.60;;;;;;;11.60;41.10;99058.59;6160679;23;20020;-84
2023/04/30 12:21:48;;;;;;;0.50;0.50;;;;;;;11.44;41.42;99061.09;6212205;23;20360;-83
2023/04/30 12:24:17;;;;;;;0.50;0.50;;;;;;;11.43;41.82;99067.56;6211683;23;20020;-83
2023/04/30 12:26:45;;;;;;;0.50;0.50;;;;;;;11.43;42.04;99070.25;6135758;23;20025;-83
2023/04/30 12:29:17;;;;;;;0.50;0.50;;;;;;;11.32;42.12;99065.78;6184638;23;20024;-82
2023/04/30 12:32:06;;;;;;;0.50;0.50;;;;;;;11.35;42.01;99072.56;6211465;23;20048;-83
2023/04/30 12:34:37;;;;;;;0.50;0.50;;;;;;;11.21;42.27;99072.88;6211864;23;20020;-81